sensor_id;sensor_type;location;lat;lon;timestamp;P1;durP1;ratioP1;P2;durP2;ratioP2
73693;SDS011;61997;53.974;11.670;2023-01-25T00:00:37;40.63;;;23.48;;
73693;SDS011;61997;53.974;11.670;2023-01-25T00:03:03;47.10;;;23.27;;
73693;SDS011;61997;53.974;11.670;2023-01-25T00:05:29;36.03;;;21.45;;
73693;SDS011;61997;53.974;11.670;2023-01-25T00:07:57;40.40;;;22.38;;
73693;SDS011;61997;53.974;11.670;2023-01-25T00:10:23;38.95;;;21.27;;
73693;SDS011;61997;53.974;11.670;2023-01-25T00:12:49;43.30;;;22.48;;
73693;SDS011;61997;53.974;11.670;2023-01-25T00:15:14;39.75;;;21.35;;
73693;SDS011;61997;53.974;11.670;2023-01-25T00:17:40;39.75;;;20.77;;
73693;SDS011;61997;53.974;11.670;2023-01-25T00:20:05;41.03;;;21.23;;
73693;SDS011;61997;53.974;11.670;2023-01-25T00:22:32;38.90;;;21.08;;
73693;SDS011;61997;53.974;11.670;2023-01-25T00:24:58;39.17;;;21.05;;
73693;SDS011;61997;53.974;11.670;2023-01-25T00:27:23;37.17;;;21.17;;
73693;SDS011;61997;53.974;11.670;2023-01-25T00:29:50;37.55;;;19.73;;
73693;SDS011;61997;53.974;11.670;2023-01-25T00:37:18;37.60;;;19.67;;
73693;SDS011;61997;53.974;11.670;2023-01-25T00:39:47;36.05;;;18.90;;
73693;SDS011;61997;53.974;11.670;2023-01-25T00:42:14;34.15;;;18.30;;
73693;SDS011;61997;53.974;11.670;2023-01-25T00:44:42;31.27;;;17.38;;
73693;SDS011;61997;53.974;11.670;2023-01-25T00:47:10;32.83;;;17.48;;
73693;SDS011;61997;53.974;11.670;2023-01-25T00:49:36;32.13;;;17.35;;
73693;SDS011;61997;53.974;11.670;2023-01-25T00:52:03;28.92;;;17.80;;
73693;SDS011;61997;53.974;11.670;2023-01-25T00:54:29;31.92;;;17.15;;
73693;SDS011;61997;53.974;11.670;2023-01-25T00:56:54;32.90;;;17.33;;
73693;SDS011;61997;53.974;11.670;2023-01-25T00:59:21;30.23;;;17.13;;
73693;SDS011;61997;53.974;11.670;2023-01-25T01:01:49;31.40;;;16.67;;
73693;SDS011;61997;53.974;11.670;2023-01-25T01:04:22;30.38;;;15.48;;
73693;SDS011;61997;53.974;11.670;2023-01-25T01:06:49;31.70;;;16.70;;
73693;SDS011;61997;53.974;11.670;2023-01-25T01:09:16;28.83;;;15.88;;
73693;SDS011;61997;53.974;11.670;2023-01-25T01:11:41;27.17;;;15.98;;
73693;SDS011;61997;53.974;11.670;2023-01-25T01:14:07;32.47;;;16.75;;
73693;SDS011;61997;53.974;11.670;2023-01-25T01:16:33;28.58;;;15.27;;
73693;SDS011;61997;53.974;11.670;2023-01-25T01:18:59;32.17;;;15.63;;
73693;SDS011;61997;53.974;11.670;2023-01-25T01:21:25;24.40;;;14.32;;
73693;SDS011;61997;53.974;11.670;2023-01-25T01:23:50;26.73;;;15.32;;
73693;SDS011;61997;53.974;11.670;2023-01-25T01:26:17;25.15;;;13.95;;
73693;SDS011;61997;53.974;11.670;2023-01-25T01:31:12;27.02;;;13.90;;
73693;SDS011;61997;53.974;11.670;2023-01-25T01:33:37;26.23;;;14.45;;
73693;SDS011;61997;53.974;11.670;2023-01-25T01:36:07;23.92;;;13.82;;
73693;SDS011;61997;53.974;11.670;2023-01-25T01:40:57;26.67;;;13.37;;
73693;SDS011;61997;53.974;11.670;2023-01-25T01:43:23;24.73;;;12.90;;
73693;SDS011;61997;53.974;11.670;2023-01-25T01:46:34;23.08;;;13.05;;
73693;SDS011;61997;53.974;11.670;2023-01-25T01:53:55;23.75;;;11.43;;
73693;SDS011;61997;53.974;11.670;2023-01-25T01:56:28;24.42;;;12.02;;
73693;SDS011;61997;53.974;11.670;2023-01-25T01:58:57;20.80;;;10.48;;
73693;SDS011;61997;53.974;11.670;2023-01-25T02:01:23;21.00;;;11.60;;
73693;SDS011;61997;53.974;11.670;2023-01-25T02:03:49;25.63;;;11.75;;
73693;SDS011;61997;53.974;11.670;2023-01-25T02:06:16;20.83;;;11.60;;
73693;SDS011;61997;53.974;11.670;2023-01-25T02:08:47;22.60;;;11.13;;
73693;SDS011;61997;53.974;11.670;2023-01-25T02:11:13;19.23;;;10.50;;
73693;SDS011;61997;53.974;11.670;2023-01-25T02:13:38;23.55;;;10.95;;
73693;SDS011;61997;53.974;11.670;2023-01-25T02:16:04;18.20;;;10.35;;
73693;SDS011;61997;53.974;11.670;2023-01-25T02:18:30;20.38;;;11.23;;
73693;SDS011;61997;53.974;11.670;2023-01-25T02:20:57;20.38;;;10.68;;
73693;SDS011;61997;53.974;11.670;2023-01-25T02:25:54;23.20;;;12.43;;
73693;SDS011;61997;53.974;11.670;2023-01-25T02:28:28;23.65;;;12.32;;
73693;SDS011;61997;53.974;11.670;2023-01-25T02:30:56;21.45;;;11.75;;
73693;SDS011;61997;53.974;11.670;2023-01-25T02:33:22;25.02;;;12.27;;
73693;SDS011;61997;53.974;11.670;2023-01-25T02:35:49;24.15;;;12.38;;
73693;SDS011;61997;53.974;11.670;2023-01-25T02:38:20;23.05;;;12.63;;
73693;SDS011;61997;53.974;11.670;2023-01-25T02:40:47;25.50;;;12.07;;
73693;SDS011;61997;53.974;11.670;2023-01-25T02:43:14;27.30;;;14.02;;
73693;SDS011;61997;53.974;11.670;2023-01-25T02:45:42;24.58;;;13.13;;
73693;SDS011;61997;53.974;11.670;2023-01-25T02:48:11;22.83;;;12.05;;
73693;SDS011;61997;53.974;11.670;2023-01-25T02:50:36;24.02;;;13.10;;
73693;SDS011;61997;53.974;11.670;2023-01-25T02:53:03;26.05;;;13.57;;
73693;SDS011;61997;53.974;11.670;2023-01-25T02:55:31;22.27;;;12.77;;
73693;SDS011;61997;53.974;11.670;2023-01-25T02:57:56;22.70;;;12.90;;
73693;SDS011;61997;53.974;11.670;2023-01-25T03:00:23;22.35;;;12.15;;
73693;SDS011;61997;53.974;11.670;2023-01-25T03:02:50;21.88;;;12.50;;
73693;SDS011;61997;53.974;11.670;2023-01-25T03:05:19;21.35;;;12.65;;
73693;SDS011;61997;53.974;11.670;2023-01-25T03:07:45;25.52;;;13.05;;
73693;SDS011;61997;53.974;11.670;2023-01-25T03:10:11;24.77;;;12.18;;
73693;SDS011;61997;53.974;11.670;2023-01-25T03:12:37;22.40;;;12.63;;
73693;SDS011;61997;53.974;11.670;2023-01-25T03:15:04;23.45;;;12.82;;
73693;SDS011;61997;53.974;11.670;2023-01-25T03:17:30;25.63;;;12.23;;
73693;SDS011;61997;53.974;11.670;2023-01-25T03:19:57;23.38;;;11.50;;
73693;SDS011;61997;53.974;11.670;2023-01-25T03:22:23;22.17;;;11.88;;
73693;SDS011;61997;53.974;11.670;2023-01-25T03:24:48;22.30;;;11.57;;
73693;SDS011;61997;53.974;11.670;2023-01-25T03:27:16;21.08;;;11.00;;
73693;SDS011;61997;53.974;11.670;2023-01-25T03:29:43;22.88;;;11.85;;
73693;SDS011;61997;53.974;11.670;2023-01-25T03:32:09;25.55;;;12.18;;
73693;SDS011;61997;53.974;11.670;2023-01-25T03:34:35;18.88;;;10.77;;
73693;SDS011;61997;53.974;11.670;2023-01-25T03:37:01;20.27;;;11.48;;
73693;SDS011;61997;53.974;11.670;2023-01-25T03:39:27;19.17;;;9.70;;
73693;SDS011;61997;53.974;11.670;2023-01-25T03:41:53;22.30;;;11.32;;
73693;SDS011;61997;53.974;11.670;2023-01-25T03:44:18;19.75;;;10.05;;
73693;SDS011;61997;53.974;11.670;2023-01-25T03:46:44;19.25;;;10.02;;
73693;SDS011;61997;53.974;11.670;2023-01-25T03:49:09;19.75;;;10.90;;
73693;SDS011;61997;53.974;11.670;2023-01-25T03:51:35;20.20;;;10.25;;
73693;SDS011;61997;53.974;11.670;2023-01-25T03:54:01;18.58;;;11.05;;
73693;SDS011;61997;53.974;11.670;2023-01-25T03:56:27;19.15;;;9.98;;
73693;SDS011;61997;53.974;11.670;2023-01-25T03:58:52;17.05;;;10.52;;
73693;SDS011;61997;53.974;11.670;2023-01-25T04:01:18;19.15;;;9.52;;
73693;SDS011;61997;53.974;11.670;2023-01-25T04:03:43;22.45;;;9.95;;
73693;SDS011;61997;53.974;11.670;2023-01-25T04:06:08;19.95;;;9.50;;
73693;SDS011;61997;53.974;11.670;2023-01-25T04:08:34;18.77;;;10.07;;
73693;SDS011;61997;53.974;11.670;2023-01-25T04:11:00;21.45;;;10.38;;
73693;SDS011;61997;53.974;11.670;2023-01-25T04:13:27;20.00;;;9.93;;
73693;SDS011;61997;53.974;11.670;2023-01-25T04:15:53;19.70;;;9.95;;
73693;SDS011;61997;53.974;11.670;2023-01-25T04:18:18;16.45;;;9.15;;
73693;SDS011;61997;53.974;11.670;2023-01-25T04:20:44;16.73;;;8.40;;
73693;SDS011;61997;53.974;11.670;2023-01-25T04:23:10;17.35;;;9.27;;
73693;SDS011;61997;53.974;11.670;2023-01-25T04:25:36;15.60;;;8.90;;
73693;SDS011;61997;53.974;11.670;2023-01-25T04:28:01;17.77;;;10.02;;
73693;SDS011;61997;53.974;11.670;2023-01-25T04:30:27;18.42;;;8.90;;
73693;SDS011;61997;53.974;11.670;2023-01-25T04:32:52;15.23;;;8.60;;
73693;SDS011;61997;53.974;11.670;2023-01-25T04:35:18;19.42;;;9.55;;
73693;SDS011;61997;53.974;11.670;2023-01-25T04:37:51;15.85;;;8.32;;
73693;SDS011;61997;53.974;11.670;2023-01-25T04:40:18;17.80;;;8.75;;
73693;SDS011;61997;53.974;11.670;2023-01-25T04:42:43;18.15;;;8.30;;
73693;SDS011;61997;53.974;11.670;2023-01-25T04:45:08;15.10;;;8.20;;
73693;SDS011;61997;53.974;11.670;2023-01-25T04:47:34;17.83;;;8.75;;
73693;SDS011;61997;53.974;11.670;2023-01-25T04:50:00;15.43;;;8.48;;
73693;SDS011;61997;53.974;11.670;2023-01-25T04:52:25;16.90;;;8.05;;
73693;SDS011;61997;53.974;11.670;2023-01-25T04:54:53;16.60;;;7.93;;
73693;SDS011;61997;53.974;11.670;2023-01-25T04:57:18;15.50;;;7.78;;
73693;SDS011;61997;53.974;11.670;2023-01-25T04:59:44;16.58;;;7.47;;
73693;SDS011;61997;53.974;11.670;2023-01-25T05:02:09;19.10;;;8.13;;
73693;SDS011;61997;53.974;11.670;2023-01-25T05:04:35;16.35;;;8.07;;
73693;SDS011;61997;53.974;11.670;2023-01-25T05:07:01;16.80;;;8.10;;
73693;SDS011;61997;53.974;11.670;2023-01-25T05:09:26;15.52;;;7.93;;
73693;SDS011;61997;53.974;11.670;2023-01-25T05:11:51;16.27;;;8.43;;
73693;SDS011;61997;53.974;11.670;2023-01-25T05:14:17;14.10;;;7.63;;
73693;SDS011;61997;53.974;11.670;2023-01-25T05:16:42;15.30;;;7.78;;
73693;SDS011;61997;53.974;11.670;2023-01-25T05:19:08;14.25;;;7.70;;
73693;SDS011;61997;53.974;11.670;2023-01-25T05:21:35;18.35;;;8.00;;
73693;SDS011;61997;53.974;11.670;2023-01-25T05:24:19;17.17;;;7.53;;
73693;SDS011;61997;53.974;11.670;2023-01-25T05:26:45;12.07;;;7.05;;
73693;SDS011;61997;53.974;11.670;2023-01-25T05:29:30;14.93;;;6.55;;
73693;SDS011;61997;53.974;11.670;2023-01-25T05:32:04;15.38;;;7.35;;
73693;SDS011;61997;53.974;11.670;2023-01-25T05:34:31;15.35;;;7.13;;
73693;SDS011;61997;53.974;11.670;2023-01-25T05:36:57;13.57;;;6.95;;
73693;SDS011;61997;53.974;11.670;2023-01-25T05:39:23;12.60;;;6.28;;
73693;SDS011;61997;53.974;11.670;2023-01-25T05:41:48;16.02;;;7.68;;
73693;SDS011;61997;53.974;11.670;2023-01-25T05:44:13;13.25;;;7.00;;
73693;SDS011;61997;53.974;11.670;2023-01-25T05:46:39;14.18;;;6.55;;
73693;SDS011;61997;53.974;11.670;2023-01-25T05:49:05;13.48;;;6.90;;
73693;SDS011;61997;53.974;11.670;2023-01-25T05:51:30;12.60;;;6.70;;
73693;SDS011;61997;53.974;11.670;2023-01-25T05:53:56;13.00;;;6.90;;
73693;SDS011;61997;53.974;11.670;2023-01-25T05:56:22;12.90;;;6.75;;
73693;SDS011;61997;53.974;11.670;2023-01-25T05:58:54;13.85;;;6.70;;
73693;SDS011;61997;53.974;11.670;2023-01-25T06:01:20;13.32;;;6.90;;
73693;SDS011;61997;53.974;11.670;2023-01-25T06:03:46;13.85;;;6.43;;
73693;SDS011;61997;53.974;11.670;2023-01-25T06:06:12;13.43;;;6.55;;
73693;SDS011;61997;53.974;11.670;2023-01-25T06:08:38;13.57;;;6.70;;
73693;SDS011;61997;53.974;11.670;2023-01-25T06:11:07;12.68;;;5.97;;
73693;SDS011;61997;53.974;11.670;2023-01-25T06:13:33;14.43;;;6.82;;
73693;SDS011;61997;53.974;11.670;2023-01-25T06:15:58;14.00;;;6.10;;
73693;SDS011;61997;53.974;11.670;2023-01-25T06:18:24;13.18;;;6.82;;
73693;SDS011;61997;53.974;11.670;2023-01-25T06:20:50;12.35;;;6.30;;
73693;SDS011;61997;53.974;11.670;2023-01-25T06:23:15;11.15;;;6.43;;
73693;SDS011;61997;53.974;11.670;2023-01-25T06:25:41;12.68;;;6.05;;
73693;SDS011;61997;53.974;11.670;2023-01-25T06:28:06;11.98;;;6.30;;
73693;SDS011;61997;53.974;11.670;2023-01-25T06:30:32;11.73;;;5.80;;
73693;SDS011;61997;53.974;11.670;2023-01-25T06:32:58;14.02;;;5.97;;
73693;SDS011;61997;53.974;11.670;2023-01-25T06:35:23;11.88;;;5.95;;
73693;SDS011;61997;53.974;11.670;2023-01-25T06:37:49;12.15;;;5.35;;
73693;SDS011;61997;53.974;11.670;2023-01-25T06:40:14;12.52;;;6.10;;
73693;SDS011;61997;53.974;11.670;2023-01-25T06:42:40;12.18;;;6.13;;
73693;SDS011;61997;53.974;11.670;2023-01-25T06:45:06;12.25;;;5.30;;
73693;SDS011;61997;53.974;11.670;2023-01-25T06:47:32;13.60;;;6.10;;
73693;SDS011;61997;53.974;11.670;2023-01-25T06:49:57;13.10;;;5.53;;
73693;SDS011;61997;53.974;11.670;2023-01-25T06:52:23;14.57;;;6.35;;
73693;SDS011;61997;53.974;11.670;2023-01-25T06:54:48;10.52;;;5.57;;
73693;SDS011;61997;53.974;11.670;2023-01-25T06:57:13;10.73;;;5.32;;
73693;SDS011;61997;53.974;11.670;2023-01-25T06:59:39;11.32;;;5.97;;
73693;SDS011;61997;53.974;11.670;2023-01-25T07:02:04;10.80;;;5.78;;
73693;SDS011;61997;53.974;11.670;2023-01-25T07:04:30;12.95;;;5.47;;
73693;SDS011;61997;53.974;11.670;2023-01-25T07:06:55;12.93;;;6.10;;
73693;SDS011;61997;53.974;11.670;2023-01-25T07:09:21;10.18;;;5.80;;
73693;SDS011;61997;53.974;11.670;2023-01-25T07:11:49;10.23;;;5.15;;
73693;SDS011;61997;53.974;11.670;2023-01-25T07:14:15;11.15;;;5.47;;
73693;SDS011;61997;53.974;11.670;2023-01-25T07:16:41;10.35;;;5.50;;
73693;SDS011;61997;53.974;11.670;2023-01-25T07:19:06;12.77;;;5.80;;
73693;SDS011;61997;53.974;11.670;2023-01-25T07:21:33;11.23;;;5.10;;
73693;SDS011;61997;53.974;11.670;2023-01-25T07:23:59;10.52;;;4.82;;
73693;SDS011;61997;53.974;11.670;2023-01-25T07:26:26;12.80;;;6.13;;
73693;SDS011;61997;53.974;11.670;2023-01-25T07:28:52;11.35;;;5.57;;
73693;SDS011;61997;53.974;11.670;2023-01-25T07:31:18;12.10;;;5.70;;
73693;SDS011;61997;53.974;11.670;2023-01-25T07:33:47;11.90;;;5.40;;
73693;SDS011;61997;53.974;11.670;2023-01-25T07:36:17;11.13;;;4.93;;
73693;SDS011;61997;53.974;11.670;2023-01-25T07:38:42;13.35;;;6.78;;
73693;SDS011;61997;53.974;11.670;2023-01-25T07:41:08;9.95;;;5.15;;
73693;SDS011;61997;53.974;11.670;2023-01-25T07:43:33;10.48;;;5.00;;
73693;SDS011;61997;53.974;11.670;2023-01-25T07:46:00;10.38;;;5.13;;
73693;SDS011;61997;53.974;11.670;2023-01-25T07:48:26;13.48;;;5.45;;
73693;SDS011;61997;53.974;11.670;2023-01-25T07:50:52;12.73;;;5.30;;
73693;SDS011;61997;53.974;11.670;2023-01-25T07:53:35;8.00;;;4.85;;
73693;SDS011;61997;53.974;11.670;2023-01-25T07:58:30;10.50;;;4.75;;
73693;SDS011;61997;53.974;11.670;2023-01-25T08:00:56;9.05;;;4.68;;
73693;SDS011;61997;53.974;11.670;2023-01-25T08:03:21;13.30;;;5.43;;
73693;SDS011;61997;53.974;11.670;2023-01-25T08:05:47;12.10;;;4.60;;
73693;SDS011;61997;53.974;11.670;2023-01-25T08:08:13;10.93;;;4.85;;
73693;SDS011;61997;53.974;11.670;2023-01-25T08:10:38;9.70;;;5.05;;
73693;SDS011;61997;53.974;11.670;2023-01-25T08:13:04;10.20;;;4.50;;
73693;SDS011;61997;53.974;11.670;2023-01-25T08:15:30;9.00;;;4.75;;
73693;SDS011;61997;53.974;11.670;2023-01-25T08:17:59;10.55;;;5.25;;
73693;SDS011;61997;53.974;11.670;2023-01-25T08:20:25;9.48;;;4.72;;
73693;SDS011;61997;53.974;11.670;2023-01-25T08:22:50;9.77;;;4.55;;
73693;SDS011;61997;53.974;11.670;2023-01-25T08:25:17;9.63;;;4.88;;
73693;SDS011;61997;53.974;11.670;2023-01-25T08:27:44;10.43;;;5.10;;
73693;SDS011;61997;53.974;11.670;2023-01-25T08:30:09;10.90;;;4.95;;
73693;SDS011;61997;53.974;11.670;2023-01-25T08:32:36;10.02;;;5.13;;
73693;SDS011;61997;53.974;11.670;2023-01-25T08:35:02;8.70;;;5.22;;
73693;SDS011;61997;53.974;11.670;2023-01-25T08:37:27;9.75;;;5.13;;
73693;SDS011;61997;53.974;11.670;2023-01-25T08:39:54;10.60;;;4.93;;
73693;SDS011;61997;53.974;11.670;2023-01-25T08:42:22;7.90;;;4.45;;
73693;SDS011;61997;53.974;11.670;2023-01-25T08:44:47;11.45;;;4.50;;
73693;SDS011;61997;53.974;11.670;2023-01-25T08:47:13;9.38;;;4.47;;
73693;SDS011;61997;53.974;11.670;2023-01-25T08:49:38;8.57;;;4.25;;
73693;SDS011;61997;53.974;11.670;2023-01-25T08:52:04;9.43;;;5.05;;
73693;SDS011;61997;53.974;11.670;2023-01-25T08:54:29;10.07;;;4.25;;
73693;SDS011;61997;53.974;11.670;2023-01-25T08:56:55;9.20;;;4.38;;
73693;SDS011;61997;53.974;11.670;2023-01-25T08:59:20;10.25;;;4.47;;
73693;SDS011;61997;53.974;11.670;2023-01-25T09:01:46;10.50;;;4.40;;
73693;SDS011;61997;53.974;11.670;2023-01-25T09:04:12;11.20;;;4.55;;
73693;SDS011;61997;53.974;11.670;2023-01-25T09:06:37;8.95;;;4.40;;
73693;SDS011;61997;53.974;11.670;2023-01-25T09:09:03;7.60;;;4.15;;
73693;SDS011;61997;53.974;11.670;2023-01-25T09:11:29;10.13;;;4.95;;
73693;SDS011;61997;53.974;11.670;2023-01-25T09:13:57;8.23;;;3.80;;
73693;SDS011;61997;53.974;11.670;2023-01-25T09:16:23;8.40;;;4.47;;
73693;SDS011;61997;53.974;11.670;2023-01-25T09:18:53;9.43;;;4.63;;
73693;SDS011;61997;53.974;11.670;2023-01-25T09:21:20;9.98;;;5.30;;
73693;SDS011;61997;53.974;11.670;2023-01-25T09:23:49;10.32;;;4.38;;
73693;SDS011;61997;53.974;11.670;2023-01-25T09:26:16;8.32;;;4.45;;
73693;SDS011;61997;53.974;11.670;2023-01-25T09:28:41;8.30;;;4.22;;
73693;SDS011;61997;53.974;11.670;2023-01-25T09:31:10;8.25;;;3.85;;
73693;SDS011;61997;53.974;11.670;2023-01-25T09:33:36;9.10;;;4.63;;
73693;SDS011;61997;53.974;11.670;2023-01-25T09:36:03;8.20;;;4.20;;
73693;SDS011;61997;53.974;11.670;2023-01-25T09:38:29;7.05;;;4.40;;
73693;SDS011;61997;53.974;11.670;2023-01-25T09:46:28;8.15;;;3.70;;
73693;SDS011;61997;53.974;11.670;2023-01-25T09:49:09;8.27;;;4.30;;
73693;SDS011;61997;53.974;11.670;2023-01-25T09:52:06;9.93;;;4.22;;
73693;SDS011;61997;53.974;11.670;2023-01-25T09:54:40;11.13;;;4.45;;
73693;SDS011;61997;53.974;11.670;2023-01-25T09:57:13;7.50;;;3.80;;
73693;SDS011;61997;53.974;11.670;2023-01-25T09:59:40;6.72;;;4.03;;
73693;SDS011;61997;53.974;11.670;2023-01-25T10:04:53;7.82;;;4.20;;
73693;SDS011;61997;53.974;11.670;2023-01-25T10:07:24;8.40;;;3.92;;
73693;SDS011;61997;53.974;11.670;2023-01-25T10:12:23;7.13;;;3.88;;
73693;SDS011;61997;53.974;11.670;2023-01-25T10:14:50;7.13;;;3.35;;
73693;SDS011;61997;53.974;11.670;2023-01-25T10:17:34;8.65;;;3.90;;
73693;SDS011;61997;53.974;11.670;2023-01-25T10:31:03;10.70;;;5.07;;
73693;SDS011;61997;53.974;11.670;2023-01-25T10:33:32;7.20;;;3.88;;
73693;SDS011;61997;53.974;11.670;2023-01-25T10:36:00;8.63;;;4.40;;
73693;SDS011;61997;53.974;11.670;2023-01-25T10:40:57;9.60;;;3.83;;
73693;SDS011;61997;53.974;11.670;2023-01-25T10:43:26;8.73;;;4.40;;
73693;SDS011;61997;53.974;11.670;2023-01-25T10:45:52;7.22;;;4.05;;
73693;SDS011;61997;53.974;11.670;2023-01-25T10:48:22;8.52;;;4.88;;
73693;SDS011;61997;53.974;11.670;2023-01-25T10:50:51;10.25;;;4.97;;
73693;SDS011;61997;53.974;11.670;2023-01-25T10:53:29;8.73;;;4.25;;
73693;SDS011;61997;53.974;11.670;2023-01-25T10:59:12;10.10;;;5.05;;
73693;SDS011;61997;53.974;11.670;2023-01-25T11:01:28;11.45;;;5.53;;
73693;SDS011;61997;53.974;11.670;2023-01-25T11:03:56;9.75;;;4.57;;
73693;SDS011;61997;53.974;11.670;2023-01-25T11:06:29;10.05;;;5.00;;
73693;SDS011;61997;53.974;11.670;2023-01-25T11:08:59;10.18;;;4.97;;
73693;SDS011;61997;53.974;11.670;2023-01-25T11:11:35;8.50;;;4.30;;
73693;SDS011;61997;53.974;11.670;2023-01-25T11:14:12;10.10;;;5.28;;
73693;SDS011;61997;53.974;11.670;2023-01-25T11:16:40;12.27;;;5.80;;
73693;SDS011;61997;53.974;11.670;2023-01-25T11:19:30;9.95;;;6.10;;
73693;SDS011;61997;53.974;11.670;2023-01-25T11:22:19;10.52;;;5.72;;
73693;SDS011;61997;53.974;11.670;2023-01-25T11:24:45;12.15;;;6.43;;
73693;SDS011;61997;53.974;11.670;2023-01-25T11:30:07;12.35;;;5.75;;
73693;SDS011;61997;53.974;11.670;2023-01-25T11:32:39;11.80;;;6.25;;
73693;SDS011;61997;53.974;11.670;2023-01-25T11:35:12;12.82;;;6.35;;
73693;SDS011;61997;53.974;11.670;2023-01-25T11:40:41;18.85;;;8.20;;
73693;SDS011;61997;53.974;11.670;2023-01-25T11:49:41;12.73;;;7.60;;
73693;SDS011;61997;53.974;11.670;2023-01-25T11:55:24;16.65;;;8.60;;
73693;SDS011;61997;53.974;11.670;2023-01-25T12:05:59;17.77;;;8.35;;
73693;SDS011;61997;53.974;11.670;2023-01-25T12:09:14;18.45;;;9.73;;
73693;SDS011;61997;53.974;11.670;2023-01-25T12:11:53;17.23;;;10.07;;
73693;SDS011;61997;53.974;11.670;2023-01-25T12:14:33;17.75;;;10.60;;
73693;SDS011;61997;53.974;11.670;2023-01-25T12:22:09;16.63;;;9.18;;
73693;SDS011;61997;53.974;11.670;2023-01-25T12:30:32;22.88;;;10.48;;
73693;SDS011;61997;53.974;11.670;2023-01-25T12:36:31;17.60;;;10.38;;
73693;SDS011;61997;53.974;11.670;2023-01-25T12:39:11;23.85;;;10.75;;
73693;SDS011;61997;53.974;11.670;2023-01-25T12:44:58;21.40;;;10.90;;
73693;SDS011;61997;53.974;11.670;2023-01-25T12:47:34;21.63;;;11.13;;
73693;SDS011;61997;53.974;11.670;2023-01-25T12:52:47;22.52;;;11.45;;
73693;SDS011;61997;53.974;11.670;2023-01-25T12:55:18;19.67;;;10.38;;
73693;SDS011;61997;53.974;11.670;2023-01-25T12:57:55;21.13;;;11.65;;
73693;SDS011;61997;53.974;11.670;2023-01-25T13:03:20;19.75;;;10.68;;
73693;SDS011;61997;53.974;11.670;2023-01-25T13:05:55;19.85;;;9.35;;
73693;SDS011;61997;53.974;11.670;2023-01-25T13:11:41;19.05;;;10.60;;
73693;SDS011;61997;53.974;11.670;2023-01-25T13:13:45;23.20;;;9.98;;
73693;SDS011;61997;53.974;11.670;2023-01-25T13:18:54;21.30;;;10.13;;
73693;SDS011;61997;53.974;11.670;2023-01-25T13:21:54;17.17;;;10.75;;
73693;SDS011;61997;53.974;11.670;2023-01-25T13:26:45;20.65;;;10.20;;
73693;SDS011;61997;53.974;11.670;2023-01-25T13:31:56;21.65;;;10.63;;
73693;SDS011;61997;53.974;11.670;2023-01-25T13:37:00;21.40;;;10.60;;
73693;SDS011;61997;53.974;11.670;2023-01-25T13:44:45;20.55;;;10.38;;
73693;SDS011;61997;53.974;11.670;2023-01-25T13:47:13;18.92;;;10.18;;
73693;SDS011;61997;53.974;11.670;2023-01-25T13:52:22;21.90;;;10.48;;
73693;SDS011;61997;53.974;11.670;2023-01-25T13:54:48;18.55;;;10.20;;
73693;SDS011;61997;53.974;11.670;2023-01-25T13:57:21;20.90;;;10.30;;
73693;SDS011;61997;53.974;11.670;2023-01-25T13:59:47;20.73;;;10.20;;
73693;SDS011;61997;53.974;11.670;2023-01-25T14:04:48;23.42;;;10.60;;
73693;SDS011;61997;53.974;11.670;2023-01-25T14:07:15;19.80;;;10.25;;
73693;SDS011;61997;53.974;11.670;2023-01-25T14:09:42;25.88;;;12.80;;
73693;SDS011;61997;53.974;11.670;2023-01-25T14:12:09;25.15;;;11.68;;
73693;SDS011;61997;53.974;11.670;2023-01-25T14:14:36;25.25;;;12.73;;
73693;SDS011;61997;53.974;11.670;2023-01-25T14:19:40;23.65;;;13.00;;
73693;SDS011;61997;53.974;11.670;2023-01-25T14:22:12;20.58;;;12.38;;
73693;SDS011;61997;53.974;11.670;2023-01-25T14:24:42;23.88;;;13.15;;
73693;SDS011;61997;53.974;11.670;2023-01-25T14:27:11;23.80;;;12.70;;
73693;SDS011;61997;53.974;11.670;2023-01-25T14:29:38;30.13;;;13.07;;
73693;SDS011;61997;53.974;11.670;2023-01-25T14:32:04;23.23;;;12.52;;
73693;SDS011;61997;53.974;11.670;2023-01-25T14:34:29;25.95;;;13.40;;
73693;SDS011;61997;53.974;11.670;2023-01-25T14:37:13;26.98;;;13.52;;
73693;SDS011;61997;53.974;11.670;2023-01-25T14:39:41;28.08;;;13.77;;
73693;SDS011;61997;53.974;11.670;2023-01-25T14:42:08;22.90;;;13.13;;
73693;SDS011;61997;53.974;11.670;2023-01-25T14:44:34;26.38;;;13.85;;
73693;SDS011;61997;53.974;11.670;2023-01-25T14:47:19;24.67;;;13.15;;
73693;SDS011;61997;53.974;11.670;2023-01-25T14:49:46;24.67;;;13.25;;
73693;SDS011;61997;53.974;11.670;2023-01-25T14:52:12;24.98;;;13.75;;
73693;SDS011;61997;53.974;11.670;2023-01-25T14:54:44;23.90;;;12.80;;
73693;SDS011;61997;53.974;11.670;2023-01-25T14:59:56;26.42;;;13.32;;
73693;SDS011;61997;53.974;11.670;2023-01-25T15:02:38;25.38;;;12.27;;
73693;SDS011;61997;53.974;11.670;2023-01-25T15:05:19;20.90;;;12.32;;
73693;SDS011;61997;53.974;11.670;2023-01-25T15:07:51;22.83;;;12.93;;
73693;SDS011;61997;53.974;11.670;2023-01-25T15:10:19;24.50;;;13.55;;
73693;SDS011;61997;53.974;11.670;2023-01-25T15:15:28;22.92;;;12.30;;
73693;SDS011;61997;53.974;11.670;2023-01-25T15:17:57;25.33;;;12.90;;
73693;SDS011;61997;53.974;11.670;2023-01-25T15:22:52;22.15;;;11.55;;
73693;SDS011;61997;53.974;11.670;2023-01-25T15:25:17;24.42;;;13.27;;
73693;SDS011;61997;53.974;11.670;2023-01-25T15:27:43;23.30;;;13.50;;
73693;SDS011;61997;53.974;11.670;2023-01-25T15:30:15;21.35;;;11.15;;
73693;SDS011;61997;53.974;11.670;2023-01-25T15:32:42;23.90;;;11.45;;
73693;SDS011;61997;53.974;11.670;2023-01-25T15:35:17;23.38;;;11.13;;
73693;SDS011;61997;53.974;11.670;2023-01-25T15:37:45;19.70;;;11.30;;
73693;SDS011;61997;53.974;11.670;2023-01-25T15:40:14;22.88;;;11.45;;
73693;SDS011;61997;53.974;11.670;2023-01-25T15:42:41;26.10;;;13.45;;
73693;SDS011;61997;53.974;11.670;2023-01-25T15:45:07;28.02;;;14.93;;
73693;SDS011;61997;53.974;11.670;2023-01-25T15:47:36;30.27;;;15.43;;
73693;SDS011;61997;53.974;11.670;2023-01-25T15:50:02;27.85;;;14.45;;
73693;SDS011;61997;53.974;11.670;2023-01-25T15:52:29;25.10;;;14.63;;
73693;SDS011;61997;53.974;11.670;2023-01-25T15:54:54;32.30;;;15.27;;
73693;SDS011;61997;53.974;11.670;2023-01-25T15:57:30;31.00;;;15.48;;
73693;SDS011;61997;53.974;11.670;2023-01-25T15:59:58;31.48;;;14.95;;
73693;SDS011;61997;53.974;11.670;2023-01-25T16:02:23;30.73;;;16.00;;
73693;SDS011;61997;53.974;11.670;2023-01-25T16:04:50;27.02;;;14.60;;
73693;SDS011;61997;53.974;11.670;2023-01-25T16:07:26;27.98;;;15.38;;
73693;SDS011;61997;53.974;11.670;2023-01-25T16:09:52;29.38;;;15.93;;
73693;SDS011;61997;53.974;11.670;2023-01-25T16:12:18;30.35;;;15.00;;
73693;SDS011;61997;53.974;11.670;2023-01-25T16:14:44;29.63;;;14.98;;
73693;SDS011;61997;53.974;11.670;2023-01-25T16:17:14;30.25;;;14.98;;
73693;SDS011;61997;53.974;11.670;2023-01-25T16:19:46;28.88;;;14.43;;
73693;SDS011;61997;53.974;11.670;2023-01-25T16:22:15;27.67;;;14.35;;
73693;SDS011;61997;53.974;11.670;2023-01-25T16:24:42;25.90;;;13.93;;
73693;SDS011;61997;53.974;11.670;2023-01-25T16:27:15;25.33;;;13.27;;
73693;SDS011;61997;53.974;11.670;2023-01-25T16:29:45;28.58;;;15.43;;